Aquilla, AL

3:50 PM CDT on July 29, 2014 (GMT -0500)
Key (KMEI) Elev 308 ft | 32.33 °N, 88.75 °W | Change Station

Current weather conditions updated 52 minutes ago

Overcast
Overcast
83 °F
Feels Like 84 °F
N
7
Wind Variable Wind from NNW

Today is forecast to be Much Cooler than yesterday.

Today
High -- | Low -- °F
--% Chance of Precip.
Yesterday
High -- | Low -- °F
Precip. -- in
6:07 AM 7:51 PM
Waxing Crescent, 8% visible
Pressure 30.02 in
Visibility 10.0 miles
Clouds Few 4800 ft
Mostly Cloudy 6000 ft
Overcast 8500 ft
Heat Index 84 °F
Dew Point 63 °F
Humidity 51%
Rainfall 0.02 in
Snow Depth Not available.
UV 3 out of 12
Pollen 4.30 out of 12
Air Quality Not available.
Flu Activity Not available.
METAR KMEI 291958Z 33006KT 10SM FEW048 BKN060 OVC085 28/17 A3003 RMK AO2 SLP166 T02830172

More Conditions Fewer Conditions

Pressure 30.02 in
Visibility 10.0 miles
Clouds Few 4800 ft
Mostly Cloudy 6000 ft
Overcast 8500 ft
Heat Index 84 °F
Dew Point 63 °F
Humidity 51%
Rainfall 0.02 in
Snow Depth Not available.
UV 3 out of 12
Pollen 4.30 out of 12
Air Quality Not available.
Flu Activity Not available.
METAR KMEI 291958Z 33006KT 10SM FEW048 BKN060 OVC085 28/17 A3003 RMK AO2 SLP166 T02830172

More Conditions Fewer Conditions

10-Day Weather Forecast

Almanac

Astronomy

Jul. 29, 2014 Rise Set
Actual Time 6:07 AM CDT 7:51 PM CDT
Civil Twilight 5:40 AM CDT 8:18 PM CDT
Nautical Twilight 5:08 AM CDT 8:50 PM CDT
Astronomical Twilight 4:34 AM CDT 9:24 PM CDT
Moon 8:31 AM CDT 9:18 PM CDT
Length of Visible Light 14h 37m
Length of Day
13h 44m
Tomorrow will be 1m 23s shorter.
Waxing Crescent, 8% of the Moon is Illuminated
Today
Waxing Crescent
Aug 3
First Quarter
Aug 10
Full
Aug 17
Last Quarter
Aug 25
New

Today's Extremes

State Highs State Lows

Community

WunderPhotos

Upload Photos

1,738,859 photos uploaded!

Nearby

Snow Depth

Station Depth Elevation
No new snow has been reported.

Earthquake Activity

City Distance Mag. Time & Date
No recent earthquake activity has been reported nearby.
Minimum magnitude displayed is 2.5.

Coastal Water Temperatures

Place Temperature
No Stations Reporting

Nearby Weather Stations

There are no personal weather stations in this area.